Cactus Peak, Santa Catalina Island Weather observations

Data are for 10 minute period ending at time listed.
 Day   Time   Solar   Ave.   Ave.  Ave.  Vector    Max.   Stn.    Total
  of    of     Rad.   Air    Rel.  Wind   Wind     Wind   Baro.  Precip.
Year   Day            Temp.  Hum.  Speed  Dir.     Gust   Pres.         
2016   (PST)   W/m2    F      %     mph   deg.      mph    mb.     in.  
------------------------------------------------------------------------
 208   20:50    0.0    75   20.5     5    328.7     5.4    999.0   0.00  
 208   21:00    0.0    75   14.8     5    324.8     6.6    999.0   0.00  
 208   21:10    0.0    76   11.5     6    306.0     7.2    999.0   0.00  
 208   21:20    0.0    77    8.1     5    308.9     7.2    999.0   0.00  
 208   21:30    0.0    77    8.9     5    339.5     6.6    999.0   0.00  
 208   21:40    0.0    76    8.5     4    319.6     5.4    999.0   0.00  
 208   21:50    0.0    77    6.5     2    319.1     4.8    999.0   0.00  
 208   22:00    0.0    77    6.9     1    313.0     2.4    999.0   0.00  
 208   22:10    0.0    77    7.2     4    331.4     6.6    999.0   0.00  
 208   22:20    0.0    77    7.3     4    335.3     4.8    999.0   0.00  
 208   22:30    0.0    78    5.3     1    338.4     3.6    999.0   0.00  
 208   22:40    0.0    79    4.4     1    276.9     0.6    999.0   0.00  
 208   22:50    0.0    79    5.2     1    239.5     0.6    999.0   0.00  
 208   23:00    0.0    79    5.5     1    322.8     2.4    999.0   0.00  
 208   23:10    0.0    79    6.3     2    168.3     4.2    999.0   0.00  
 208   23:20    0.0    78    6.4     1    169.2     3.0    999.0   0.00  
 208   23:30    0.0    79    6.6     1    306.0     3.6    999.0   0.00  
 208   23:40    0.0    79    6.5     1    177.6     4.8    999.0   0.00  
 208   23:50    0.0    78   12.4     2    155.8     4.2    999.0   0.00  
 209    0:00    0.0    77   23.8     4    150.1     5.4    999.0   0.00  
 209    0:10    0.0    77   28.9     3    155.2     4.8    999.0   0.00  
 209    0:20    0.0    77   28.3     2    141.7     5.4    999.0   0.00  
 209    0:30    0.0    77   24.4     1     96.6     1.2    999.0   0.00  
 209    0:40    0.0    78   27.9     2    139.6     4.8    999.0   0.00  
 209    0:50    0.0    77   29.1     1    142.3     2.4    999.0   0.00  
 209    1:00    0.0    78   27.4     2    156.0     5.4    999.0   0.00  
 209    1:10    0.0    78   28.5     5    148.3     6.0    999.0   0.00  
 209    1:20    0.0    76   28.6     5    161.5     7.2    999.0   0.00  
 209    1:30    0.0    77   25.7     4    159.2     6.0    999.0   0.00  
 209    1:40    0.0    78   24.5     5    140.2     7.2    999.0   0.00  
 209    1:50    0.0    78   22.5     5    149.3     6.6    999.0   0.00  
 209    2:00    0.0    78   21.4     6    144.4     7.8    999.0   0.00  
 209    2:10    0.0    77   24.1     8    132.5     9.0    999.0   0.00  
 209    2:20    0.0    76   24.1     7    134.0     9.0    999.0   0.00  
 209    2:30    0.0    77   22.1     3    136.1     6.0    999.0   0.00  
 209    2:40    0.0    78   21.1     1    140.4     2.4    999.0   0.00  
 209    2:50    0.0    77   23.8     4    132.4     7.2    999.0   0.00  
 209    3:00    0.0    77   18.0     1     49.0     1.8    999.0   0.00  
 209    3:10    0.0    77   21.4     2    156.3     3.6    999.0   0.00  
 209    3:20    0.0    77   19.8     1    156.8     0.6    999.0   0.00  
 209    3:30    0.0    78   21.6     1    165.6     0.6    999.0   0.00  
 209    3:40    0.0    77   19.1     1    173.6     2.4    999.0   0.00  
 209    3:50    0.0    79   10.6     1    223.3     3.0    999.0   0.00  
 209    4:00    0.0    76   25.1     7    139.4    10.2    999.0   0.00  
 209    4:10    0.0    76   27.1     8    128.4    10.2    999.0   0.00  
 209    4:20    0.0    76   28.3     6    138.0     9.6    999.0   0.00  
 209    4:30    0.0    76   25.7     4    135.3     7.2    999.0   0.00  
 209    4:40    0.0    77   25.3     5    139.8     6.6    999.0   0.00  
 209    4:50    0.0    77   24.5     3    147.3     4.8    999.0   0.00  
 209    5:00    0.0    77   24.8     1    154.2     1.8    999.0   0.00  
 209    5:10    2.0    77   24.0     2    152.7     7.8    999.0   0.00  
 209    5:20    7.0    76   30.2     8    139.2     9.6    999.0   0.00  
 209    5:30   17.0    75   34.3     8    128.6     9.6    999.0   0.00  
 209    5:40   34.0    75   34.6    10    128.8    11.3    999.0   0.00  
 209    5:50   59.0    76   33.6    11    129.2    12.5    999.0   0.00  
 209    6:00   93.0    75   38.8    10    126.8    11.9    999.0   0.00  
 209    6:10  122.0    76   35.5     8    136.6    10.8    999.0   0.00  
 209    6:20  151.0    77   29.6     5    142.0     8.4    999.0   0.00  
 209    6:30  182.0    77   30.6     5    144.2     9.0    999.0   0.00  
 209    6:40  213.0    75   46.8     6    152.6     8.4    999.0   0.00  
 209    6:50  245.0    77   33.5     4    150.2     7.8    999.0   0.00  
 209    7:00  278.0    78   32.2     2    164.3     3.6    999.0   0.00  
 209    7:10  313.0    79   34.4     2    170.0     4.8    999.0   0.00  
 209    7:20  350.0    79   39.5     2    162.0     6.0    999.0   0.00  
 209    7:30  385.0    77   53.9     3    164.9     7.2    999.0   0.00  
 209    7:40  400.0    78   51.3     3    167.5     6.6    999.0   0.00  
 209    7:50  439.0    77   52.9     2    163.9     6.6    999.0   0.00  
 209    8:00  473.0    80   43.8     3    167.4     7.2    999.0   0.00  
 209    8:10  505.0    76   59.5     4    164.2     7.2    999.0   0.00  
 209    8:20  552.0    81   27.1     1    165.5     6.6    999.0   0.00  
 209    8:30  583.0    79   52.7     5    169.8     7.8    999.0   0.00  
 209    8:40  557.0    78   55.9     6    168.7     9.0    999.0   0.00  
 209    8:50  373.0    77   50.7     5    168.8     6.6    999.0   0.00  
 209    9:00  554.0    80   31.3     2    190.5     6.0    999.0   0.00  
 209    9:10  581.0    82   42.3     3    176.0     6.0    999.0   0.00  
 209    9:20  577.0    79   50.4     6    169.6     9.0    999.0   0.00  
 209    9:30  607.0    77   58.9     7    171.2     9.6    999.0   0.00  
 209    9:40  576.0    77   57.7     4    166.8     9.6    999.0   0.00  
 209    9:50  652.0    78   56.3     7    171.0    11.3    999.0   0.00  
 209   10:00  803.0    77   60.5     6    171.9     9.6    999.0   0.00  
 209   10:10  762.0    77   58.5     6    171.0     9.6    999.0   0.00  
 209   10:20  858.0    78   58.5     6    169.2    11.3    999.0   0.00  
 209   10:30  864.0    79   56.1     3    171.4     7.8    999.0   0.00  
 209   10:40  881.0    82   48.2     2    177.5     6.0    999.0   0.00  
 209   10:50  704.0    80   54.8     6    172.2     8.4    999.0   0.00  
 209   11:00  738.0    79   57.7     4    171.0     8.4    999.0   0.00  
 209   11:10  764.0    82   51.2     3    174.5     7.2    999.0   0.00  
 209   11:20  856.0    82   46.6     6    165.3     9.6    999.0   0.00  
 209   11:30  878.0    83   31.3     6    169.6    10.2    999.0   0.00  
 209   11:40  919.0    84   29.2     5    169.4     8.4    999.0   0.00  
 209   11:50  866.0    84   28.3     6    172.1    10.2    999.0   0.00  
 209   12:00  815.0    83   27.1     7    169.9    10.8    999.0   0.00  
 209   12:10  844.0    81   32.8     9    169.5    13.1    999.0   0.00  
 209   12:20  898.0    80   35.3     8    166.7    14.9    999.0   0.00  
 209   12:30  743.0    80   39.5     9    173.2    14.3    999.0   0.00  
 209   12:40  769.0    79   37.2     9    171.9    13.1    999.0   0.00  
 209   12:50  815.0    81   28.8     7    166.5    10.8    999.0   0.00  
 209   13:00  907.0    81   25.9     7    165.9    11.3    999.0   0.00  
 209   13:10  952.0    84   20.2     5    168.2    10.2    999.0   0.00  
 209   13:20  850.0    83   23.6     6    163.7    10.2    999.0   0.00  
 209   13:30  751.0    84   18.4     5    165.7    10.2    999.0   0.00  
 209   13:40  764.0    87   18.4     4    160.8     8.4    999.0   0.00  
 209   13:50  703.0    87   12.9     6    195.1    10.2    999.0   0.00  
 209   14:00  488.0    88    6.2     5    200.5     9.0    999.0   0.00  
 209   14:10  590.0    89    5.5     4    218.6     6.6    999.0   0.00  
 209   14:20  809.0    89   18.4     5    308.4     8.4    999.0   0.00  
 209   14:30  777.0    84   36.3     6    323.9     9.0    999.0   0.00  
 209   14:40  750.0    84   35.3     5    316.2     7.2    999.0   0.00  
 209   14:50  727.0    84   35.0     4    329.6     7.2    999.0   0.00  
 209   15:00  702.0    83   36.5     4    334.1     7.2    999.0   0.00  
 209   15:10  676.0    83   36.3     4    344.5     7.2    999.0   0.00  
 209   15:20  651.0    82   40.5     5    348.1     7.8    999.0   0.00  
 209   15:30  624.0    82   36.6     5    325.0     7.8    999.0   0.00  
 209   15:40  596.0    82   38.3     4    346.8     7.2    999.0   0.00  
 209   15:50  569.0    82   35.5     4    352.2     6.6    999.0   0.00  
 209   16:00  540.0    82   32.8     4    353.0     6.6    999.0   0.00  
 209   16:10  510.0    82   32.1     5    353.8     8.4    999.0   0.00  
 209   16:20  480.0    82   30.1     5    347.4     7.8    999.0   0.00  
 209   16:30  449.0    83   24.9     6    351.3     9.0    999.0   0.00  
 209   16:40  418.0    82   17.6     7    357.0     9.6    999.0   0.00  
 209   16:50  386.0    84   11.5     5    335.1     7.8    999.0   0.00  
 209   17:00  354.0    85   10.8     5    341.6     7.8    999.0   0.00  
 209   17:10  322.0    86   11.7     5    329.3     7.8    999.0   0.00  
 209   17:20  290.0    85   15.8     5    344.0     7.2    999.0   0.00  
 209   17:30  257.0    83   18.7     6    344.3     7.8    999.0   0.00  
 209   17:40  225.0    82   17.7     6    337.0     8.4    999.0   0.00  
 209   17:50  194.0    82   14.7     7    340.5     9.0    999.0   0.00  
 209   18:00  163.0    81   13.5     8    343.7    10.2    999.0   0.00  
 209   18:10  133.0    80   11.5     8    344.8    10.2    999.0   0.00  
 209   18:20  104.0    80   10.2     7    336.8     9.0    999.0   0.00  
 209   18:30   72.0    81    9.7     7    326.5     9.0    999.0   0.00  
 209   18:40   43.0    80    9.9     7    333.1     9.6    999.0   0.00  
 209   18:50   24.0    78   13.3     8    338.1    10.2    999.0   0.00  
 209   19:00   10.0    77   13.9     8    340.5     9.6    999.0   0.00  
 209   19:10    4.0    77   12.3     8    342.1     9.6    999.0   0.00  
 209   19:20    2.0    78   11.3     9    351.7     9.6    999.0   0.00  
 209   19:30    0.0    78   11.0     8    340.8     9.0    999.0   0.00  
 209   19:40    0.0    79    8.0     8    325.6     9.0    999.0   0.00  
 209   19:50    0.0    81    3.4     8    310.2     9.6    999.0   0.00  
 209   20:00    0.0    81    2.6     6    313.1     9.6    999.0   0.00  
 209   20:10    0.0    81    3.9     5    313.3     6.6    999.0   0.00  
 209   20:20    0.0    80    5.2     5    316.4     7.8    999.0   0.00  
 209   20:30    0.0    80    5.5     5    314.6     6.0    999.0   0.00  
 209   20:40    0.0    80    5.4     3    302.9     5.4    999.0   0.00  

Return to Cactus Peak graphs page.


Western Regional Climate Center,wrcc@dri.edu